sensor_id;sensor_type;location;lat;lon;timestamp;temperature;humidity
77727;SHT30;68312;53.502;10.030;2023-07-02T00:01:47;14.65;88.52
77727;SHT30;68312;53.502;10.030;2023-07-02T00:04:14;14.62;88.84
77727;SHT30;68312;53.502;10.030;2023-07-02T00:06:47;14.55;89.01
77727;SHT30;68312;53.502;10.030;2023-07-02T00:09:15;14.64;88.92
77727;SHT30;68312;53.502;10.030;2023-07-02T00:11:44;14.57;88.94
77727;SHT30;68312;53.502;10.030;2023-07-02T00:14:12;14.51;89.43
77727;SHT30;68312;53.502;10.030;2023-07-02T00:16:42;14.48;89.55
77727;SHT30;68312;53.502;10.030;2023-07-02T00:19:07;14.49;89.50
77727;SHT30;68312;53.502;10.030;2023-07-02T00:21:32;14.45;89.49
77727;SHT30;68312;53.502;10.030;2023-07-02T00:24:00;14.51;89.37
77727;SHT30;68312;53.502;10.030;2023-07-02T00:26:27;14.52;89.38
77727;SHT30;68312;53.502;10.030;2023-07-02T00:28:54;14.49;89.48
77727;SHT30;68312;53.502;10.030;2023-07-02T00:31:21;14.49;89.56
77727;SHT30;68312;53.502;10.030;2023-07-02T00:33:48;14.48;89.63
77727;SHT30;68312;53.502;10.030;2023-07-02T00:36:13;14.51;89.75
77727;SHT30;68312;53.502;10.030;2023-07-02T00:38:46;14.58;89.49
77727;SHT30;68312;53.502;10.030;2023-07-02T00:41:12;14.67;89.05
77727;SHT30;68312;53.502;10.030;2023-07-02T00:43:38;14.88;87.87
77727;SHT30;68312;53.502;10.030;2023-07-02T00:46:17;14.96;87.42
77727;SHT30;68312;53.502;10.030;2023-07-02T00:48:44;14.96;87.60
77727;SHT30;68312;53.502;10.030;2023-07-02T00:51:14;14.98;87.32
77727;SHT30;68312;53.502;10.030;2023-07-02T00:53:40;15.00;87.03
77727;SHT30;68312;53.502;10.030;2023-07-02T00:56:06;15.06;86.97
77727;SHT30;68312;53.502;10.030;2023-07-02T00:58:37;15.03;87.06
77727;SHT30;68312;53.502;10.030;2023-07-02T01:01:03;14.99;87.32
77727;SHT30;68312;53.502;10.030;2023-07-02T01:03:28;15.00;87.46
77727;SHT30;68312;53.502;10.030;2023-07-02T01:05:54;15.03;87.20
77727;SHT30;68312;53.502;10.030;2023-07-02T01:08:19;15.00;86.99
77727;SHT30;68312;53.502;10.030;2023-07-02T01:10:45;15.02;87.07
77727;SHT30;68312;53.502;10.030;2023-07-02T01:13:19;15.04;86.94
77727;SHT30;68312;53.502;10.030;2023-07-02T01:15:47;15.00;86.99
77727;SHT30;68312;53.502;10.030;2023-07-02T01:18:14;14.98;86.98
77727;SHT30;68312;53.502;10.030;2023-07-02T01:20:42;14.98;87.19
77727;SHT30;68312;53.502;10.030;2023-07-02T01:23:09;14.92;87.43
77727;SHT30;68312;53.502;10.030;2023-07-02T01:25:35;14.95;87.36
77727;SHT30;68312;53.502;10.030;2023-07-02T01:28:03;14.86;87.55
77727;SHT30;68312;53.502;10.030;2023-07-02T01:30:28;14.98;87.43
77727;SHT30;68312;53.502;10.030;2023-07-02T01:32:54;14.98;87.30
77727;SHT30;68312;53.502;10.030;2023-07-02T01:35:19;14.92;87.62
77727;SHT30;68312;53.502;10.030;2023-07-02T01:37:45;14.92;87.63
77727;SHT30;68312;53.502;10.030;2023-07-02T01:40:10;14.99;87.29
77727;SHT30;68312;53.502;10.030;2023-07-02T01:42:36;15.03;87.10
77727;SHT30;68312;53.502;10.030;2023-07-02T01:45:02;14.99;87.25
77727;SHT30;68312;53.502;10.030;2023-07-02T01:47:27;15.02;87.01
77727;SHT30;68312;53.502;10.030;2023-07-02T01:49:53;15.00;87.20
77727;SHT30;68312;53.502;10.030;2023-07-02T01:52:18;14.96;87.40
77727;SHT30;68312;53.502;10.030;2023-07-02T01:54:45;14.99;87.54
77727;SHT30;68312;53.502;10.030;2023-07-02T01:57:11;14.93;87.47
77727;SHT30;68312;53.502;10.030;2023-07-02T01:59:37;14.89;87.51
77727;SHT30;68312;53.502;10.030;2023-07-02T02:02:03;14.86;87.65
77727;SHT30;68312;53.502;10.030;2023-07-02T02:04:28;14.86;87.51
77727;SHT30;68312;53.502;10.030;2023-07-02T02:06:54;14.85;87.66
77727;SHT30;68312;53.502;10.030;2023-07-02T02:09:19;14.86;87.37
77727;SHT30;68312;53.502;10.030;2023-07-02T02:11:50;14.83;87.51
77727;SHT30;68312;53.502;10.030;2023-07-02T02:14:17;14.85;87.47
77727;SHT30;68312;53.502;10.030;2023-07-02T02:16:43;14.82;87.58
77727;SHT30;68312;53.502;10.030;2023-07-02T02:19:12;14.83;87.50
77727;SHT30;68312;53.502;10.030;2023-07-02T02:21:39;14.81;87.78
77727;SHT30;68312;53.502;10.030;2023-07-02T02:24:06;14.82;87.59
77727;SHT30;68312;53.502;10.030;2023-07-02T02:26:33;14.85;87.49
77727;SHT30;68312;53.502;10.030;2023-07-02T02:28:59;14.86;87.41
77727;SHT30;68312;53.502;10.030;2023-07-02T02:31:24;14.93;87.03
77727;SHT30;68312;53.502;10.030;2023-07-02T02:33:50;14.93;86.89
77727;SHT30;68312;53.502;10.030;2023-07-02T02:36:15;14.99;86.69
77727;SHT30;68312;53.502;10.030;2023-07-02T02:38:42;15.00;86.71
77727;SHT30;68312;53.502;10.030;2023-07-02T02:41:08;15.02;86.55
77727;SHT30;68312;53.502;10.030;2023-07-02T02:43:34;15.04;86.43
77727;SHT30;68312;53.502;10.030;2023-07-02T02:46:00;15.03;86.42
77727;SHT30;68312;53.502;10.030;2023-07-02T02:48:25;15.03;86.36
77727;SHT30;68312;53.502;10.030;2023-07-02T02:50:51;15.00;86.31
77727;SHT30;68312;53.502;10.030;2023-07-02T02:53:16;15.02;86.13
77727;SHT30;68312;53.502;10.030;2023-07-02T02:55:42;15.09;85.60
77727;SHT30;68312;53.502;10.030;2023-07-02T02:58:07;15.00;85.95
77727;SHT30;68312;53.502;10.030;2023-07-02T03:00:33;15.00;85.99
77727;SHT30;68312;53.502;10.030;2023-07-02T03:02:59;14.99;86.15
77727;SHT30;68312;53.502;10.030;2023-07-02T03:05:24;14.92;86.46
77727;SHT30;68312;53.502;10.030;2023-07-02T03:07:52;14.85;86.58
77727;SHT30;68312;53.502;10.030;2023-07-02T03:10:17;14.88;86.66
77727;SHT30;68312;53.502;10.030;2023-07-02T03:12:43;14.86;86.56
77727;SHT30;68312;53.502;10.030;2023-07-02T03:15:09;14.81;86.87
77727;SHT30;68312;53.502;10.030;2023-07-02T03:17:36;14.79;86.73
77727;SHT30;68312;53.502;10.030;2023-07-02T03:20:02;14.76;86.78
77727;SHT30;68312;53.502;10.030;2023-07-02T03:22:33;14.71;86.91
77727;SHT30;68312;53.502;10.030;2023-07-02T03:24:58;14.69;86.96
77727;SHT30;68312;53.502;10.030;2023-07-02T03:27:24;14.68;86.76
77727;SHT30;68312;53.502;10.030;2023-07-02T03:29:49;14.71;86.62
77727;SHT30;68312;53.502;10.030;2023-07-02T03:32:14;14.67;86.60
77727;SHT30;68312;53.502;10.030;2023-07-02T03:34:40;14.67;86.65
77727;SHT30;68312;53.502;10.030;2023-07-02T03:37:07;14.67;86.32
77727;SHT30;68312;53.502;10.030;2023-07-02T03:39:33;14.76;85.69
77727;SHT30;68312;53.502;10.030;2023-07-02T03:41:58;14.71;85.95
77727;SHT30;68312;53.502;10.030;2023-07-02T03:44:23;14.71;86.22
77727;SHT30;68312;53.502;10.030;2023-07-02T03:46:49;14.68;86.10
77727;SHT30;68312;53.502;10.030;2023-07-02T03:49:15;14.67;85.96
77727;SHT30;68312;53.502;10.030;2023-07-02T03:51:40;14.67;85.80
77727;SHT30;68312;53.502;10.030;2023-07-02T03:54:06;14.65;85.94
77727;SHT30;68312;53.502;10.030;2023-07-02T03:56:31;14.64;85.96
77727;SHT30;68312;53.502;10.030;2023-07-02T03:58:57;14.65;85.47
77727;SHT30;68312;53.502;10.030;2023-07-02T04:01:22;14.78;84.60
77727;SHT30;68312;53.502;10.030;2023-07-02T04:03:49;14.73;85.12
77727;SHT30;68312;53.502;10.030;2023-07-02T04:06:15;14.81;84.34
77727;SHT30;68312;53.502;10.030;2023-07-02T04:08:41;14.82;84.37
77727;SHT30;68312;53.502;10.030;2023-07-02T04:11:07;14.83;84.57
77727;SHT30;68312;53.502;10.030;2023-07-02T04:13:32;14.79;84.62
77727;SHT30;68312;53.502;10.030;2023-07-02T04:15:58;14.76;85.00
77727;SHT30;68312;53.502;10.030;2023-07-02T04:18:23;14.81;84.43
77727;SHT30;68312;53.502;10.030;2023-07-02T04:20:48;14.85;84.11
77727;SHT30;68312;53.502;10.030;2023-07-02T04:23:14;14.88;84.40
77727;SHT30;68312;53.502;10.030;2023-07-02T04:25:39;14.86;84.32
77727;SHT30;68312;53.502;10.030;2023-07-02T04:28:05;14.83;84.39
77727;SHT30;68312;53.502;10.030;2023-07-02T04:30:30;14.83;84.40
77727;SHT30;68312;53.502;10.030;2023-07-02T04:32:55;14.95;83.05
77727;SHT30;68312;53.502;10.030;2023-07-02T04:35:21;15.00;83.39
77727;SHT30;68312;53.502;10.030;2023-07-02T04:37:47;15.02;83.35
77727;SHT30;68312;53.502;10.030;2023-07-02T04:40:13;15.00;82.64
77727;SHT30;68312;53.502;10.030;2023-07-02T04:42:41;15.09;82.23
77727;SHT30;68312;53.502;10.030;2023-07-02T04:45:13;15.23;81.59
77727;SHT30;68312;53.502;10.030;2023-07-02T04:47:41;15.12;81.88
77727;SHT30;68312;53.502;10.030;2023-07-02T04:53:47;15.14;81.10
77727;SHT30;68312;53.502;10.030;2023-07-02T04:56:13;15.20;80.62
77727;SHT30;68312;53.502;10.030;2023-07-02T04:58:38;15.23;80.15
77727;SHT30;68312;53.502;10.030;2023-07-02T05:01:04;15.26;80.31
77727;SHT30;68312;53.502;10.030;2023-07-02T05:03:30;15.27;79.32
77727;SHT30;68312;53.502;10.030;2023-07-02T05:05:55;15.36;79.01
77727;SHT30;68312;53.502;10.030;2023-07-02T05:08:21;15.43;79.46
77727;SHT30;68312;53.502;10.030;2023-07-02T05:10:46;15.43;79.89
77727;SHT30;68312;53.502;10.030;2023-07-02T05:13:11;15.49;79.58
77727;SHT30;68312;53.502;10.030;2023-07-02T05:15:37;15.50;79.52
77727;SHT30;68312;53.502;10.030;2023-07-02T05:18:02;15.57;78.57
77727;SHT30;68312;53.502;10.030;2023-07-02T05:20:28;15.54;79.36
77727;SHT30;68312;53.502;10.030;2023-07-02T05:22:53;15.51;79.19
77727;SHT30;68312;53.502;10.030;2023-07-02T05:25:19;15.60;79.03
77727;SHT30;68312;53.502;10.030;2023-07-02T05:27:44;15.62;79.06
77727;SHT30;68312;53.502;10.030;2023-07-02T05:30:10;15.72;77.55
77727;SHT30;68312;53.502;10.030;2023-07-02T05:32:36;15.75;77.27
77727;SHT30;68312;53.502;10.030;2023-07-02T05:35:01;15.72;77.23
77727;SHT30;68312;53.502;10.030;2023-07-02T05:37:27;15.78;78.16
77727;SHT30;68312;53.502;10.030;2023-07-02T05:39:53;15.82;77.43
77727;SHT30;68312;53.502;10.030;2023-07-02T05:42:18;15.92;77.03
77727;SHT30;68312;53.502;10.030;2023-07-02T05:44:44;15.91;76.84
77727;SHT30;68312;53.502;10.030;2023-07-02T05:47:09;15.97;77.35
77727;SHT30;68312;53.502;10.030;2023-07-02T05:49:36;16.08;77.15
77727;SHT30;68312;53.502;10.030;2023-07-02T05:52:02;16.15;76.35
77727;SHT30;68312;53.502;10.030;2023-07-02T05:54:28;16.26;75.27
77727;SHT30;68312;53.502;10.030;2023-07-02T05:56:55;16.28;75.09
77727;SHT30;68312;53.502;10.030;2023-07-02T05:59:21;16.26;74.85
77727;SHT30;68312;53.502;10.030;2023-07-02T06:01:47;16.37;74.91
77727;SHT30;68312;53.502;10.030;2023-07-02T06:04:12;16.42;74.40
77727;SHT30;68312;53.502;10.030;2023-07-02T06:06:38;16.50;75.29
77727;SHT30;68312;53.502;10.030;2023-07-02T06:09:03;16.57;74.91
77727;SHT30;68312;53.502;10.030;2023-07-02T06:11:29;16.55;74.41
77727;SHT30;68312;53.502;10.030;2023-07-02T06:13:54;16.59;74.47
77727;SHT30;68312;53.502;10.030;2023-07-02T06:16:20;16.66;73.44
77727;SHT30;68312;53.502;10.030;2023-07-02T06:18:46;16.55;74.10
77727;SHT30;68312;53.502;10.030;2023-07-02T06:21:11;16.63;74.36
77727;SHT30;68312;53.502;10.030;2023-07-02T06:23:43;16.67;73.91
77727;SHT30;68312;53.502;10.030;2023-07-02T06:26:10;16.66;73.66
77727;SHT30;68312;53.502;10.030;2023-07-02T06:28:36;16.71;74.35
77727;SHT30;68312;53.502;10.030;2023-07-02T06:31:02;16.74;73.47
77727;SHT30;68312;53.502;10.030;2023-07-02T06:33:28;16.87;74.16
77727;SHT30;68312;53.502;10.030;2023-07-02T06:35:54;16.91;73.54
77727;SHT30;68312;53.502;10.030;2023-07-02T06:38:19;17.10;73.17
77727;SHT30;68312;53.502;10.030;2023-07-02T06:40:45;17.22;73.23
77727;SHT30;68312;53.502;10.030;2023-07-02T06:43:10;17.15;72.19
77727;SHT30;68312;53.502;10.030;2023-07-02T06:45:35;17.18;71.23
77727;SHT30;68312;53.502;10.030;2023-07-02T06:48:01;17.21;71.41
77727;SHT30;68312;53.502;10.030;2023-07-02T06:50:26;17.28;71.64
77727;SHT30;68312;53.502;10.030;2023-07-02T06:52:52;17.34;70.72
77727;SHT30;68312;53.502;10.030;2023-07-02T06:55:17;17.43;70.70
77727;SHT30;68312;53.502;10.030;2023-07-02T06:57:44;17.39;70.48
77727;SHT30;68312;53.502;10.030;2023-07-02T07:00:12;17.38;69.92
77727;SHT30;68312;53.502;10.030;2023-07-02T07:02:38;17.53;69.23
77727;SHT30;68312;53.502;10.030;2023-07-02T07:05:04;17.61;68.47
77727;SHT30;68312;53.502;10.030;2023-07-02T07:07:29;17.69;68.84
77727;SHT30;68312;53.502;10.030;2023-07-02T07:09:55;17.59;69.28
77727;SHT30;68312;53.502;10.030;2023-07-02T07:12:20;17.89;68.28
77727;SHT30;68312;53.502;10.030;2023-07-02T07:14:46;18.10;68.64
77727;SHT30;68312;53.502;10.030;2023-07-02T07:17:12;18.05;67.29
77727;SHT30;68312;53.502;10.030;2023-07-02T07:19:38;17.97;68.09
77727;SHT30;68312;53.502;10.030;2023-07-02T07:22:03;18.24;67.36
77727;SHT30;68312;53.502;10.030;2023-07-02T07:24:29;18.35;66.72
77727;SHT30;68312;53.502;10.030;2023-07-02T07:26:54;18.48;64.50
77727;SHT30;68312;53.502;10.030;2023-07-02T07:29:20;18.01;65.84
77727;SHT30;68312;53.502;10.030;2023-07-02T07:31:45;17.79;67.26
77727;SHT30;68312;53.502;10.030;2023-07-02T07:34:11;17.73;68.26
77727;SHT30;68312;53.502;10.030;2023-07-02T07:36:37;17.69;66.95
77727;SHT30;68312;53.502;10.030;2023-07-02T07:39:03;17.50;65.50
77727;SHT30;68312;53.502;10.030;2023-07-02T07:41:28;17.52;65.53
77727;SHT30;68312;53.502;10.030;2023-07-02T07:43:54;17.62;65.83
77727;SHT30;68312;53.502;10.030;2023-07-02T07:46:19;17.77;65.07
77727;SHT30;68312;53.502;10.030;2023-07-02T07:48:45;17.90;64.75
77727;SHT30;68312;53.502;10.030;2023-07-02T07:51:10;17.90;64.40
77727;SHT30;68312;53.502;10.030;2023-07-02T07:53:38;18.07;64.55
77727;SHT30;68312;53.502;10.030;2023-07-02T07:56:05;18.07;63.77
77727;SHT30;68312;53.502;10.030;2023-07-02T07:58:30;18.11;64.17
77727;SHT30;68312;53.502;10.030;2023-07-02T08:00:57;18.41;63.78
77727;SHT30;68312;53.502;10.030;2023-07-02T08:03:23;18.62;60.64
77727;SHT30;68312;53.502;10.030;2023-07-02T08:05:48;18.76;60.15
77727;SHT30;68312;53.502;10.030;2023-07-02T08:08:14;19.24;60.31
77727;SHT30;68312;53.502;10.030;2023-07-02T08:10:39;19.93;59.66
77727;SHT30;68312;53.502;10.030;2023-07-02T08:13:05;19.82;58.11
77727;SHT30;68312;53.502;10.030;2023-07-02T08:16:20;19.00;57.48
77727;SHT30;68312;53.502;10.030;2023-07-02T08:18:46;18.92;58.45
77727;SHT30;68312;53.502;10.030;2023-07-02T08:21:11;19.60;54.46
77727;SHT30;68312;53.502;10.030;2023-07-02T08:23:37;19.89;53.74
77727;SHT30;68312;53.502;10.030;2023-07-02T08:26:10;19.65;53.72
77727;SHT30;68312;53.502;10.030;2023-07-02T08:28:37;19.06;54.81
77727;SHT30;68312;53.502;10.030;2023-07-02T08:31:04;18.93;54.87
77727;SHT30;68312;53.502;10.030;2023-07-02T08:33:29;18.86;54.18
77727;SHT30;68312;53.502;10.030;2023-07-02T08:35:55;18.91;54.44
77727;SHT30;68312;53.502;10.030;2023-07-02T08:38:21;19.09;53.36
77727;SHT30;68312;53.502;10.030;2023-07-02T08:40:48;19.55;51.28
77727;SHT30;68312;53.502;10.030;2023-07-02T08:43:14;20.23;49.71
77727;SHT30;68312;53.502;10.030;2023-07-02T08:46:11;20.19;48.56
77727;SHT30;68312;53.502;10.030;2023-07-02T08:48:37;20.49;46.84
77727;SHT30;68312;53.502;10.030;2023-07-02T08:51:03;20.47;45.54
77727;SHT30;68312;53.502;10.030;2023-07-02T08:53:28;21.01;44.42
77727;SHT30;68312;53.502;10.030;2023-07-02T08:56:00;21.76;43.79
77727;SHT30;68312;53.502;10.030;2023-07-02T08:58:25;22.54;43.69
77727;SHT30;68312;53.502;10.030;2023-07-02T09:01:08;22.07;43.24
77727;SHT30;68312;53.502;10.030;2023-07-02T09:03:34;22.22;44.96
77727;SHT30;68312;53.502;10.030;2023-07-02T09:06:06;21.85;43.65
77727;SHT30;68312;53.502;10.030;2023-07-02T09:08:33;22.01;44.08
77727;SHT30;68312;53.502;10.030;2023-07-02T09:11:12;22.73;44.00
77727;SHT30;68312;53.502;10.030;2023-07-02T09:13:56;21.93;46.20
77727;SHT30;68312;53.502;10.030;2023-07-02T09:16:30;21.12;47.59
77727;SHT30;68312;53.502;10.030;2023-07-02T09:21:48;19.78;51.87
77727;SHT30;68312;53.502;10.030;2023-07-02T09:24:22;19.17;51.47
77727;SHT30;68312;53.502;10.030;2023-07-02T09:26:56;18.89;52.20
77727;SHT30;68312;53.502;10.030;2023-07-02T09:29:31;18.68;53.60
77727;SHT30;68312;53.502;10.030;2023-07-02T09:32:03;18.61;55.62
77727;SHT30;68312;53.502;10.030;2023-07-02T09:34:31;18.31;55.33
77727;SHT30;68312;53.502;10.030;2023-07-02T09:36:59;18.17;56.13
77727;SHT30;68312;53.502;10.030;2023-07-02T09:39:33;18.15;56.66
77727;SHT30;68312;53.502;10.030;2023-07-02T09:42:01;18.25;57.35
77727;SHT30;68312;53.502;10.030;2023-07-02T09:44:32;18.31;55.33
77727;SHT30;68312;53.502;10.030;2023-07-02T09:47:05;18.47;55.94
77727;SHT30;68312;53.502;10.030;2023-07-02T09:49:33;20.23;52.00
77727;SHT30;68312;53.502;10.030;2023-07-02T09:52:07;22.03;46.18
77727;SHT30;68312;53.502;10.030;2023-07-02T09:54:34;21.70;47.88
77727;SHT30;68312;53.502;10.030;2023-07-02T09:57:00;22.14;45.60
77727;SHT30;68312;53.502;10.030;2023-07-02T09:59:27;20.51;49.26
77727;SHT30;68312;53.502;10.030;2023-07-02T10:01:54;19.98;50.68
77727;SHT30;68312;53.502;10.030;2023-07-02T10:04:21;20.23;50.05
77727;SHT30;68312;53.502;10.030;2023-07-02T10:06:54;21.18;49.06
77727;SHT30;68312;53.502;10.030;2023-07-02T10:09:44;20.56;49.01
77727;SHT30;68312;53.502;10.030;2023-07-02T10:12:21;20.33;50.49
77727;SHT30;68312;53.502;10.030;2023-07-02T10:14:51;21.43;49.44
77727;SHT30;68312;53.502;10.030;2023-07-02T10:17:34;20.99;47.72
77727;SHT30;68312;53.502;10.030;2023-07-02T10:20:07;20.97;47.73
77727;SHT30;68312;53.502;10.030;2023-07-02T10:22:47;21.15;49.93
77727;SHT30;68312;53.502;10.030;2023-07-02T10:25:25;20.77;50.02
77727;SHT30;68312;53.502;10.030;2023-07-02T10:27:51;20.71;50.15
77727;SHT30;68312;53.502;10.030;2023-07-02T10:30:16;20.50;48.77
77727;SHT30;68312;53.502;10.030;2023-07-02T10:32:41;20.57;47.35
77727;SHT30;68312;53.502;10.030;2023-07-02T10:35:17;19.79;47.24
77727;SHT30;68312;53.502;10.030;2023-07-02T10:37:45;19.74;48.53
77727;SHT30;68312;53.502;10.030;2023-07-02T10:40:11;19.83;48.50
77727;SHT30;68312;53.502;10.030;2023-07-02T10:42:52;19.79;49.30
77727;SHT30;68312;53.502;10.030;2023-07-02T10:45:19;19.85;50.28
77727;SHT30;68312;53.502;10.030;2023-07-02T10:47:45;19.37;50.35
77727;SHT30;68312;53.502;10.030;2023-07-02T10:52:41;18.71;50.17
77727;SHT30;68312;53.502;10.030;2023-07-02T10:55:07;18.45;51.26
77727;SHT30;68312;53.502;10.030;2023-07-02T10:57:32;18.34;52.31
77727;SHT30;68312;53.502;10.030;2023-07-02T11:00:08;18.24;51.28
77727;SHT30;68312;53.502;10.030;2023-07-02T11:02:35;18.77;51.00
77727;SHT30;68312;53.502;10.030;2023-07-02T11:05:01;19.61;50.79
77727;SHT30;68312;53.502;10.030;2023-07-02T11:07:27;20.80;48.70
77727;SHT30;68312;53.502;10.030;2023-07-02T11:09:53;21.57;46.36
77727;SHT30;68312;53.502;10.030;2023-07-02T11:12:28;22.15;44.25
77727;SHT30;68312;53.502;10.030;2023-07-02T11:14:53;22.33;45.19
77727;SHT30;68312;53.502;10.030;2023-07-02T11:17:25;23.23;44.30
77727;SHT30;68312;53.502;10.030;2023-07-02T11:19:52;23.51;42.93
77727;SHT30;68312;53.502;10.030;2023-07-02T11:22:18;23.41;42.16
77727;SHT30;68312;53.502;10.030;2023-07-02T11:24:44;22.88;42.90
77727;SHT30;68312;53.502;10.030;2023-07-02T11:27:21;22.30;44.42
77727;SHT30;68312;53.502;10.030;2023-07-02T11:29:47;22.76;45.12
77727;SHT30;68312;53.502;10.030;2023-07-02T11:32:13;21.72;44.12
77727;SHT30;68312;53.502;10.030;2023-07-02T11:34:39;21.17;45.84
77727;SHT30;68312;53.502;10.030;2023-07-02T11:37:05;21.17;44.08
77727;SHT30;68312;53.502;10.030;2023-07-02T11:39:32;21.19;44.32
77727;SHT30;68312;53.502;10.030;2023-07-02T11:41:57;21.50;44.60
77727;SHT30;68312;53.502;10.030;2023-07-02T11:44:23;22.59;43.32
77727;SHT30;68312;53.502;10.030;2023-07-02T11:46:49;23.10;41.71
77727;SHT30;68312;53.502;10.030;2023-07-02T11:49:15;23.30;38.94
77727;SHT30;68312;53.502;10.030;2023-07-02T11:51:42;22.96;40.63
77727;SHT30;68312;53.502;10.030;2023-07-02T11:54:11;22.85;41.27
77727;SHT30;68312;53.502;10.030;2023-07-02T11:56:37;22.93;41.82
77727;SHT30;68312;53.502;10.030;2023-07-02T11:59:03;22.21;43.01
77727;SHT30;68312;53.502;10.030;2023-07-02T12:01:29;21.25;43.20
77727;SHT30;68312;53.502;10.030;2023-07-02T12:03:54;20.53;45.26
77727;SHT30;68312;53.502;10.030;2023-07-02T12:06:20;20.15;45.53
77727;SHT30;68312;53.502;10.030;2023-07-02T12:08:45;20.12;47.40
77727;SHT30;68312;53.502;10.030;2023-07-02T12:11:11;20.61;45.71
77727;SHT30;68312;53.502;10.030;2023-07-02T12:13:36;21.94;43.21
77727;SHT30;68312;53.502;10.030;2023-07-02T12:16:03;22.28;43.46
77727;SHT30;68312;53.502;10.030;2023-07-02T12:18:28;21.87;41.55
77727;SHT30;68312;53.502;10.030;2023-07-02T12:20:53;22.01;42.82
77727;SHT30;68312;53.502;10.030;2023-07-02T12:23:19;22.34;42.15
77727;SHT30;68312;53.502;10.030;2023-07-02T12:25:44;21.94;43.03
77727;SHT30;68312;53.502;10.030;2023-07-02T12:28:10;22.10;43.30
77727;SHT30;68312;53.502;10.030;2023-07-02T12:30:35;22.55;41.49
77727;SHT30;68312;53.502;10.030;2023-07-02T12:33:02;22.47;41.78
77727;SHT30;68312;53.502;10.030;2023-07-02T12:35:27;21.92;42.07
77727;SHT30;68312;53.502;10.030;2023-07-02T12:37:53;21.52;44.61
77727;SHT30;68312;53.502;10.030;2023-07-02T12:40:20;21.25;44.22
77727;SHT30;68312;53.502;10.030;2023-07-02T12:42:47;21.86;44.19
77727;SHT30;68312;53.502;10.030;2023-07-02T12:45:14;22.75;42.96
77727;SHT30;68312;53.502;10.030;2023-07-02T12:47:43;23.17;41.00
77727;SHT30;68312;53.502;10.030;2023-07-02T12:50:11;22.82;42.34
77727;SHT30;68312;53.502;10.030;2023-07-02T12:52:36;22.40;42.34
77727;SHT30;68312;53.502;10.030;2023-07-02T12:55:03;21.97;44.32
77727;SHT30;68312;53.502;10.030;2023-07-02T12:57:28;22.01;43.31
77727;SHT30;68312;53.502;10.030;2023-07-02T12:59:55;22.98;42.64
77727;SHT30;68312;53.502;10.030;2023-07-02T13:02:22;23.09;42.46
77727;SHT30;68312;53.502;10.030;2023-07-02T13:04:48;23.07;39.08
77727;SHT30;68312;53.502;10.030;2023-07-02T13:07:14;22.01;42.14
77727;SHT30;68312;53.502;10.030;2023-07-02T13:09:40;21.77;43.09
77727;SHT30;68312;53.502;10.030;2023-07-02T13:12:05;21.15;43.97
77727;SHT30;68312;53.502;10.030;2023-07-02T13:14:31;21.05;46.35
77727;SHT30;68312;53.502;10.030;2023-07-02T13:16:57;20.83;45.71
77727;SHT30;68312;53.502;10.030;2023-07-02T13:19:24;21.14;46.11
77727;SHT30;68312;53.502;10.030;2023-07-02T13:21:50;21.56;45.32
77727;SHT30;68312;53.502;10.030;2023-07-02T13:24:15;21.46;46.00
77727;SHT30;68312;53.502;10.030;2023-07-02T13:26:40;21.83;45.32
77727;SHT30;68312;53.502;10.030;2023-07-02T13:29:06;22.21;44.24
77727;SHT30;68312;53.502;10.030;2023-07-02T13:31:31;20.95;45.87
77727;SHT30;68312;53.502;10.030;2023-07-02T13:33:57;20.59;46.97
77727;SHT30;68312;53.502;10.030;2023-07-02T13:36:22;21.35;46.12
77727;SHT30;68312;53.502;10.030;2023-07-02T13:38:47;22.00;46.40
77727;SHT30;68312;53.502;10.030;2023-07-02T13:41:13;22.82;43.56
77727;SHT30;68312;53.502;10.030;2023-07-02T13:43:38;22.76;43.46
77727;SHT30;68312;53.502;10.030;2023-07-02T13:46:04;23.40;41.78
77727;SHT30;68312;53.502;10.030;2023-07-02T13:48:29;22.37;42.49
77727;SHT30;68312;53.502;10.030;2023-07-02T13:50:55;21.87;43.83
77727;SHT30;68312;53.502;10.030;2023-07-02T13:53:20;21.11;43.96
77727;SHT30;68312;53.502;10.030;2023-07-02T13:55:46;20.59;45.38
77727;SHT30;68312;53.502;10.030;2023-07-02T13:58:11;21.15;44.43
77727;SHT30;68312;53.502;10.030;2023-07-02T14:00:37;21.69;45.15
77727;SHT30;68312;53.502;10.030;2023-07-02T14:03:03;21.31;46.36
77727;SHT30;68312;53.502;10.030;2023-07-02T14:05:29;21.66;45.97
77727;SHT30;68312;53.502;10.030;2023-07-02T14:07:54;21.60;44.80
77727;SHT30;68312;53.502;10.030;2023-07-02T14:10:20;21.53;46.23
77727;SHT30;68312;53.502;10.030;2023-07-02T14:12:46;21.93;43.71
77727;SHT30;68312;53.502;10.030;2023-07-02T14:15:12;22.22;43.90
77727;SHT30;68312;53.502;10.030;2023-07-02T14:17:38;22.33;43.38
77727;SHT30;68312;53.502;10.030;2023-07-02T14:20:07;23.13;43.31
77727;SHT30;68312;53.502;10.030;2023-07-02T14:22:33;22.54;43.10
77727;SHT30;68312;53.502;10.030;2023-07-02T14:24:59;22.68;42.93
77727;SHT30;68312;53.502;10.030;2023-07-02T14:27:24;23.07;41.56
77727;SHT30;68312;53.502;10.030;2023-07-02T14:29:50;23.37;40.73
77727;SHT30;68312;53.502;10.030;2023-07-02T14:32:16;22.68;43.09
77727;SHT30;68312;53.502;10.030;2023-07-02T14:34:42;22.18;42.95
77727;SHT30;68312;53.502;10.030;2023-07-02T14:37:07;21.62;44.69
77727;SHT30;68312;53.502;10.030;2023-07-02T14:39:33;21.18;45.61
77727;SHT30;68312;53.502;10.030;2023-07-02T14:41:59;20.97;45.89
77727;SHT30;68312;53.502;10.030;2023-07-02T14:44:25;22.20;42.31
77727;SHT30;68312;53.502;10.030;2023-07-02T14:46:50;23.19;42.11
77727;SHT30;68312;53.502;10.030;2023-07-02T14:49:16;22.98;41.43
77727;SHT30;68312;53.502;10.030;2023-07-02T14:51:42;21.39;42.66
77727;SHT30;68312;53.502;10.030;2023-07-02T14:54:07;20.97;43.95
77727;SHT30;68312;53.502;10.030;2023-07-02T14:56:34;20.66;44.90
77727;SHT30;68312;53.502;10.030;2023-07-02T14:59:02;20.54;45.80
77727;SHT30;68312;53.502;10.030;2023-07-02T15:01:28;20.25;46.02
77727;SHT30;68312;53.502;10.030;2023-07-02T15:03:53;20.46;46.52
77727;SHT30;68312;53.502;10.030;2023-07-02T15:06:20;20.66;45.94
77727;SHT30;68312;53.502;10.030;2023-07-02T15:08:46;21.93;44.56
77727;SHT30;68312;53.502;10.030;2023-07-02T15:11:13;22.11;42.10
77727;SHT30;68312;53.502;10.030;2023-07-02T15:13:39;22.13;43.21
77727;SHT30;68312;53.502;10.030;2023-07-02T15:16:08;22.61;41.01
77727;SHT30;68312;53.502;10.030;2023-07-02T15:18:34;23.23;41.99
77727;SHT30;68312;53.502;10.030;2023-07-02T15:20:59;22.77;40.12
77727;SHT30;68312;53.502;10.030;2023-07-02T15:23:26;23.22;41.06